Terminal Aerodrome Forecast
Issued by NWS

Home | Current Version | Previous Version | Text Only | Print | Product List | Glossary On
Versions: 1 2 3 4 5 6 7 8 9 10 11 12 13 14 15
000
FTUS46 KSEW 291755
TAFPAE
TAF
KPAE 291755Z 2918/3018 17020G30KT P6SM RA BKN040 OVC060
     FM292000 19018G28KT P6SM -SHRA SCT025 BKN035 OVC050
     FM300000 19012KT P6SM SCT050 OVC080
     FM300300 18012KT P6SM -RA BKN025 OVC040
     FM300900 16008KT P6SM VCSH SCT025 BKN040
     FM301500 18012KT P6SM -SHRA BKN025 OVC060=

USA.gov is the U.S. government's official web portal to all federal, state and local government web resources and services.